sensor_id;sensor_type;location;lat;lon;timestamp;P1;durP1;ratioP1;P2;durP2;ratioP2
3523;SDS011;1776;53.330;11.498;2023-09-18T00:00:08;6.43;;;5.70;;
3523;SDS011;1776;53.330;11.498;2023-09-18T00:02:36;7.93;;;6.90;;
3523;SDS011;1776;53.330;11.498;2023-09-18T00:05:03;7.03;;;6.43;;
3523;SDS011;1776;53.330;11.498;2023-09-18T00:07:28;7.03;;;5.80;;
3523;SDS011;1776;53.330;11.498;2023-09-18T00:09:54;7.40;;;6.73;;
3523;SDS011;1776;53.330;11.498;2023-09-18T00:12:19;7.40;;;6.70;;
3523;SDS011;1776;53.330;11.498;2023-09-18T00:14:47;8.43;;;7.63;;
3523;SDS011;1776;53.330;11.498;2023-09-18T00:17:14;7.03;;;6.37;;
3523;SDS011;1776;53.330;11.498;2023-09-18T00:19:39;7.20;;;6.53;;
3523;SDS011;1776;53.330;11.498;2023-09-18T00:22:04;7.90;;;7.10;;
3523;SDS011;1776;53.330;11.498;2023-09-18T00:24:30;7.20;;;6.57;;
3523;SDS011;1776;53.330;11.498;2023-09-18T00:26:55;7.87;;;7.07;;
3523;SDS011;1776;53.330;11.498;2023-09-18T00:29:20;7.33;;;6.40;;
3523;SDS011;1776;53.330;11.498;2023-09-18T00:31:46;7.97;;;7.20;;
3523;SDS011;1776;53.330;11.498;2023-09-18T00:34:11;7.30;;;6.60;;
3523;SDS011;1776;53.330;11.498;2023-09-18T00:36:36;7.10;;;6.20;;
3523;SDS011;1776;53.330;11.498;2023-09-18T00:39:01;9.20;;;7.47;;
3523;SDS011;1776;53.330;11.498;2023-09-18T00:41:28;7.37;;;6.63;;
3523;SDS011;1776;53.330;11.498;2023-09-18T00:43:53;9.60;;;7.27;;
3523;SDS011;1776;53.330;11.498;2023-09-18T00:46:19;7.80;;;7.00;;
3523;SDS011;1776;53.330;11.498;2023-09-18T00:48:44;8.60;;;7.70;;
3523;SDS011;1776;53.330;11.498;2023-09-18T00:51:11;8.20;;;7.40;;
3523;SDS011;1776;53.330;11.498;2023-09-18T00:53:38;7.67;;;7.00;;
3523;SDS011;1776;53.330;11.498;2023-09-18T00:56:04;8.43;;;7.47;;
3523;SDS011;1776;53.330;11.498;2023-09-18T00:58:29;7.60;;;6.90;;
3523;SDS011;1776;53.330;11.498;2023-09-18T01:00:55;7.77;;;7.07;;
3523;SDS011;1776;53.330;11.498;2023-09-18T01:03:20;8.70;;;7.90;;
3523;SDS011;1776;53.330;11.498;2023-09-18T01:05:47;7.60;;;6.80;;
3523;SDS011;1776;53.330;11.498;2023-09-18T01:08:12;9.63;;;7.60;;
3523;SDS011;1776;53.330;11.498;2023-09-18T01:10:48;10.37;;;7.77;;
3523;SDS011;1776;53.330;11.498;2023-09-18T01:13:23;6.97;;;6.37;;
3523;SDS011;1776;53.330;11.498;2023-09-18T01:15:56;7.83;;;7.13;;
3523;SDS011;1776;53.330;11.498;2023-09-18T01:18:27;8.07;;;7.27;;
3523;SDS011;1776;53.330;11.498;2023-09-18T01:20:52;8.77;;;7.97;;
3523;SDS011;1776;53.330;11.498;2023-09-18T01:23:18;8.60;;;7.70;;
3523;SDS011;1776;53.330;11.498;2023-09-18T01:25:43;8.70;;;6.67;;
3523;SDS011;1776;53.330;11.498;2023-09-18T01:28:08;7.33;;;6.63;;
3523;SDS011;1776;53.330;11.498;2023-09-18T01:30:34;7.50;;;6.90;;
3523;SDS011;1776;53.330;11.498;2023-09-18T01:32:59;9.17;;;8.00;;
3523;SDS011;1776;53.330;11.498;2023-09-18T01:35:27;7.20;;;6.60;;
3523;SDS011;1776;53.330;11.498;2023-09-18T01:37:58;7.83;;;7.03;;
3523;SDS011;1776;53.330;11.498;2023-09-18T01:40:24;9.23;;;7.10;;
3523;SDS011;1776;53.330;11.498;2023-09-18T01:42:52;7.93;;;7.17;;
3523;SDS011;1776;53.330;11.498;2023-09-18T01:45:18;7.40;;;6.70;;
3523;SDS011;1776;53.330;11.498;2023-09-18T01:47:43;8.67;;;7.80;;
3523;SDS011;1776;53.330;11.498;2023-09-18T01:50:10;8.60;;;7.70;;
3523;SDS011;1776;53.330;11.498;2023-09-18T01:52:35;8.13;;;7.33;;
3523;SDS011;1776;53.330;11.498;2023-09-18T01:55:01;8.17;;;7.33;;
3523;SDS011;1776;53.330;11.498;2023-09-18T01:57:26;8.77;;;7.97;;
3523;SDS011;1776;53.330;11.498;2023-09-18T01:59:51;8.67;;;7.80;;
3523;SDS011;1776;53.330;11.498;2023-09-18T02:02:17;9.90;;;8.87;;
3523;SDS011;1776;53.330;11.498;2023-09-18T02:04:42;8.13;;;7.40;;
3523;SDS011;1776;53.330;11.498;2023-09-18T02:07:09;8.33;;;7.63;;
3523;SDS011;1776;53.330;11.498;2023-09-18T02:09:34;9.63;;;7.70;;
3523;SDS011;1776;53.330;11.498;2023-09-18T02:11:59;8.43;;;7.10;;
3523;SDS011;1776;53.330;11.498;2023-09-18T02:14:24;9.00;;;8.20;;
3523;SDS011;1776;53.330;11.498;2023-09-18T02:16:50;8.93;;;7.30;;
3523;SDS011;1776;53.330;11.498;2023-09-18T02:19:16;8.13;;;7.43;;
3523;SDS011;1776;53.330;11.498;2023-09-18T02:21:45;7.43;;;6.83;;
3523;SDS011;1776;53.330;11.498;2023-09-18T02:24:10;10.03;;;7.77;;
3523;SDS011;1776;53.330;11.498;2023-09-18T02:26:35;8.40;;;7.60;;
3523;SDS011;1776;53.330;11.498;2023-09-18T02:29:06;7.53;;;6.80;;
3523;SDS011;1776;53.330;11.498;2023-09-18T02:31:35;8.27;;;7.43;;
3523;SDS011;1776;53.330;11.498;2023-09-18T02:34:00;8.43;;;7.63;;
3523;SDS011;1776;53.330;11.498;2023-09-18T02:36:25;8.13;;;7.30;;
3523;SDS011;1776;53.330;11.498;2023-09-18T02:38:50;7.90;;;7.20;;
3523;SDS011;1776;53.330;11.498;2023-09-18T02:41:16;8.33;;;7.50;;
3523;SDS011;1776;53.330;11.498;2023-09-18T02:43:41;7.97;;;7.23;;
3523;SDS011;1776;53.330;11.498;2023-09-18T02:46:07;8.03;;;7.23;;
3523;SDS011;1776;53.330;11.498;2023-09-18T02:48:33;8.80;;;7.90;;
3523;SDS011;1776;53.330;11.498;2023-09-18T02:50:59;8.43;;;7.50;;
3523;SDS011;1776;53.330;11.498;2023-09-18T02:53:25;13.00;;;8.10;;
3523;SDS011;1776;53.330;11.498;2023-09-18T02:55:51;7.40;;;6.63;;
3523;SDS011;1776;53.330;11.498;2023-09-18T02:58:18;8.73;;;7.73;;
3523;SDS011;1776;53.330;11.498;2023-09-18T03:00:47;9.00;;;8.23;;
3523;SDS011;1776;53.330;11.498;2023-09-18T03:03:13;8.23;;;7.13;;
3523;SDS011;1776;53.330;11.498;2023-09-18T03:05:40;8.33;;;7.50;;
3523;SDS011;1776;53.330;11.498;2023-09-18T03:08:06;8.70;;;7.80;;
3523;SDS011;1776;53.330;11.498;2023-09-18T03:10:33;8.43;;;7.30;;
3523;SDS011;1776;53.330;11.498;2023-09-18T03:12:59;8.70;;;7.90;;
3523;SDS011;1776;53.330;11.498;2023-09-18T03:15:25;7.97;;;7.27;;
3523;SDS011;1776;53.330;11.498;2023-09-18T03:17:50;9.90;;;7.97;;
3523;SDS011;1776;53.330;11.498;2023-09-18T03:20:15;8.20;;;7.37;;
3523;SDS011;1776;53.330;11.498;2023-09-18T03:22:41;10.63;;;7.30;;
3523;SDS011;1776;53.330;11.498;2023-09-18T03:25:06;8.23;;;7.33;;
3523;SDS011;1776;53.330;11.498;2023-09-18T03:27:32;8.10;;;7.30;;
3523;SDS011;1776;53.330;11.498;2023-09-18T03:29:57;7.70;;;7.00;;
3523;SDS011;1776;53.330;11.498;2023-09-18T03:32:23;10.37;;;8.40;;
3523;SDS011;1776;53.330;11.498;2023-09-18T03:34:51;7.97;;;7.17;;
3523;SDS011;1776;53.330;11.498;2023-09-18T03:37:17;8.27;;;7.47;;
3523;SDS011;1776;53.330;11.498;2023-09-18T03:39:43;8.20;;;7.40;;
3523;SDS011;1776;53.330;11.498;2023-09-18T03:42:08;8.80;;;8.00;;
3523;SDS011;1776;53.330;11.498;2023-09-18T03:44:34;9.90;;;8.50;;
3523;SDS011;1776;53.330;11.498;2023-09-18T03:46:59;8.53;;;7.73;;
3523;SDS011;1776;53.330;11.498;2023-09-18T03:49:24;8.70;;;7.80;;
3523;SDS011;1776;53.330;11.498;2023-09-18T03:51:49;8.00;;;7.20;;
3523;SDS011;1776;53.330;11.498;2023-09-18T03:54:14;7.93;;;7.13;;
3523;SDS011;1776;53.330;11.498;2023-09-18T03:56:40;8.90;;;8.10;;
3523;SDS011;1776;53.330;11.498;2023-09-18T03:59:05;8.47;;;7.60;;
3523;SDS011;1776;53.330;11.498;2023-09-18T04:01:31;10.20;;;8.10;;
3523;SDS011;1776;53.330;11.498;2023-09-18T04:03:56;7.57;;;6.77;;
3523;SDS011;1776;53.330;11.498;2023-09-18T04:06:21;8.40;;;7.60;;
3523;SDS011;1776;53.330;11.498;2023-09-18T04:08:49;8.50;;;7.30;;
3523;SDS011;1776;53.330;11.498;2023-09-18T04:11:14;8.87;;;7.97;;
3523;SDS011;1776;53.330;11.498;2023-09-18T04:13:40;10.63;;;8.60;;
3523;SDS011;1776;53.330;11.498;2023-09-18T04:16:05;8.60;;;7.80;;
3523;SDS011;1776;53.330;11.498;2023-09-18T04:18:30;9.80;;;6.80;;
3523;SDS011;1776;53.330;11.498;2023-09-18T04:20:56;8.77;;;7.60;;
3523;SDS011;1776;53.330;11.498;2023-09-18T04:23:27;9.10;;;8.10;;
3523;SDS011;1776;53.330;11.498;2023-09-18T04:25:53;8.90;;;7.77;;
3523;SDS011;1776;53.330;11.498;2023-09-18T04:28:19;8.80;;;7.90;;
3523;SDS011;1776;53.330;11.498;2023-09-18T04:30:46;8.63;;;7.83;;
3523;SDS011;1776;53.330;11.498;2023-09-18T04:33:15;8.57;;;7.80;;
3523;SDS011;1776;53.330;11.498;2023-09-18T04:35:41;8.67;;;7.83;;
3523;SDS011;1776;53.330;11.498;2023-09-18T04:38:07;9.30;;;8.07;;
3523;SDS011;1776;53.330;11.498;2023-09-18T04:40:33;8.37;;;7.67;;
3523;SDS011;1776;53.330;11.498;2023-09-18T04:42:59;8.70;;;7.90;;
3523;SDS011;1776;53.330;11.498;2023-09-18T04:45:25;9.03;;;8.20;;
3523;SDS011;1776;53.330;11.498;2023-09-18T04:47:50;8.80;;;8.00;;
3523;SDS011;1776;53.330;11.498;2023-09-18T04:50:16;9.40;;;8.40;;
3523;SDS011;1776;53.330;11.498;2023-09-18T04:52:41;10.47;;;8.33;;
3523;SDS011;1776;53.330;11.498;2023-09-18T04:55:07;10.60;;;9.10;;
3523;SDS011;1776;53.330;11.498;2023-09-18T04:57:33;8.50;;;7.77;;
3523;SDS011;1776;53.330;11.498;2023-09-18T04:59:59;8.87;;;7.80;;
3523;SDS011;1776;53.330;11.498;2023-09-18T05:02:24;9.63;;;8.00;;
3523;SDS011;1776;53.330;11.498;2023-09-18T05:04:50;8.00;;;7.20;;
3523;SDS011;1776;53.330;11.498;2023-09-18T05:07:16;9.57;;;8.20;;
3523;SDS011;1776;53.330;11.498;2023-09-18T05:09:41;8.47;;;7.20;;
3523;SDS011;1776;53.330;11.498;2023-09-18T05:12:08;11.60;;;8.00;;
3523;SDS011;1776;53.330;11.498;2023-09-18T05:14:41;8.50;;;7.70;;
3523;SDS011;1776;53.330;11.498;2023-09-18T05:17:09;9.53;;;8.40;;
3523;SDS011;1776;53.330;11.498;2023-09-18T05:19:36;8.13;;;7.33;;
3523;SDS011;1776;53.330;11.498;2023-09-18T05:22:01;8.87;;;7.97;;
3523;SDS011;1776;53.330;11.498;2023-09-18T05:24:26;8.30;;;7.57;;
3523;SDS011;1776;53.330;11.498;2023-09-18T05:26:52;9.40;;;8.43;;
3523;SDS011;1776;53.330;11.498;2023-09-18T05:29:18;12.40;;;9.13;;
3523;SDS011;1776;53.330;11.498;2023-09-18T05:31:43;8.27;;;7.47;;
3523;SDS011;1776;53.330;11.498;2023-09-18T05:34:09;8.70;;;7.90;;
3523;SDS011;1776;53.330;11.498;2023-09-18T05:36:35;9.13;;;7.30;;
3523;SDS011;1776;53.330;11.498;2023-09-18T05:39:00;9.30;;;7.87;;
3523;SDS011;1776;53.330;11.498;2023-09-18T05:41:25;10.20;;;8.10;;
3523;SDS011;1776;53.330;11.498;2023-09-18T05:43:53;8.43;;;7.50;;
3523;SDS011;1776;53.330;11.498;2023-09-18T05:46:18;11.43;;;7.30;;
3523;SDS011;1776;53.330;11.498;2023-09-18T05:48:44;10.27;;;7.90;;
3523;SDS011;1776;53.330;11.498;2023-09-18T05:51:09;8.47;;;7.70;;
3523;SDS011;1776;53.330;11.498;2023-09-18T05:53:34;8.83;;;7.93;;
3523;SDS011;1776;53.330;11.498;2023-09-18T05:55:59;7.60;;;6.80;;
3523;SDS011;1776;53.330;11.498;2023-09-18T05:58:28;10.20;;;8.33;;
3523;SDS011;1776;53.330;11.498;2023-09-18T06:00:56;8.67;;;7.87;;
3523;SDS011;1776;53.330;11.498;2023-09-18T06:03:22;9.07;;;8.17;;
3523;SDS011;1776;53.330;11.498;2023-09-18T06:05:48;9.10;;;8.20;;
3523;SDS011;1776;53.330;11.498;2023-09-18T06:08:13;9.87;;;8.30;;
3523;SDS011;1776;53.330;11.498;2023-09-18T06:10:39;8.90;;;8.00;;
3523;SDS011;1776;53.330;11.498;2023-09-18T06:13:04;8.73;;;7.93;;
3523;SDS011;1776;53.330;11.498;2023-09-18T06:15:31;7.60;;;6.90;;
3523;SDS011;1776;53.330;11.498;2023-09-18T06:17:56;7.67;;;6.97;;
3523;SDS011;1776;53.330;11.498;2023-09-18T06:20:22;8.47;;;7.67;;
3523;SDS011;1776;53.330;11.498;2023-09-18T06:22:47;8.40;;;7.00;;
3523;SDS011;1776;53.330;11.498;2023-09-18T06:25:12;8.07;;;7.37;;
3523;SDS011;1776;53.330;11.498;2023-09-18T06:27:39;11.27;;;8.10;;
3523;SDS011;1776;53.330;11.498;2023-09-18T06:30:05;7.80;;;7.10;;
3523;SDS011;1776;53.330;11.498;2023-09-18T06:32:31;8.67;;;7.77;;
3523;SDS011;1776;53.330;11.498;2023-09-18T06:34:57;10.30;;;7.87;;
3523;SDS011;1776;53.330;11.498;2023-09-18T06:37:23;9.13;;;8.07;;
3523;SDS011;1776;53.330;11.498;2023-09-18T06:39:51;9.87;;;7.33;;
3523;SDS011;1776;53.330;11.498;2023-09-18T06:42:16;14.33;;;7.00;;
3523;SDS011;1776;53.330;11.498;2023-09-18T06:44:42;8.20;;;7.40;;
3523;SDS011;1776;53.330;11.498;2023-09-18T06:47:07;8.63;;;7.83;;
3523;SDS011;1776;53.330;11.498;2023-09-18T06:49:32;10.03;;;7.17;;
3523;SDS011;1776;53.330;11.498;2023-09-18T06:51:58;9.03;;;7.97;;
3523;SDS011;1776;53.330;11.498;2023-09-18T06:54:24;8.37;;;6.63;;
3523;SDS011;1776;53.330;11.498;2023-09-18T06:56:49;9.47;;;7.93;;
3523;SDS011;1776;53.330;11.498;2023-09-18T06:59:15;7.20;;;6.50;;
3523;SDS011;1776;53.330;11.498;2023-09-18T07:01:40;8.60;;;7.50;;
3523;SDS011;1776;53.330;11.498;2023-09-18T07:04:06;8.50;;;6.57;;
3523;SDS011;1776;53.330;11.498;2023-09-18T07:06:32;8.20;;;7.30;;
3523;SDS011;1776;53.330;11.498;2023-09-18T07:08:57;8.90;;;8.00;;
3523;SDS011;1776;53.330;11.498;2023-09-18T07:11:22;9.13;;;6.93;;
3523;SDS011;1776;53.330;11.498;2023-09-18T07:13:47;6.93;;;6.33;;
3523;SDS011;1776;53.330;11.498;2023-09-18T07:16:13;7.23;;;6.37;;
3523;SDS011;1776;53.330;11.498;2023-09-18T07:18:38;7.37;;;6.77;;
3523;SDS011;1776;53.330;11.498;2023-09-18T07:21:04;9.30;;;6.60;;
3523;SDS011;1776;53.330;11.498;2023-09-18T07:23:29;12.43;;;7.50;;
3523;SDS011;1776;53.330;11.498;2023-09-18T07:25:55;9.70;;;7.67;;
3523;SDS011;1776;53.330;11.498;2023-09-18T07:28:20;7.03;;;6.43;;
3523;SDS011;1776;53.330;11.498;2023-09-18T07:30:48;8.07;;;6.97;;
3523;SDS011;1776;53.330;11.498;2023-09-18T07:33:13;7.17;;;6.47;;
3523;SDS011;1776;53.330;11.498;2023-09-18T07:35:45;7.87;;;6.67;;
3523;SDS011;1776;53.330;11.498;2023-09-18T07:38:14;7.93;;;6.70;;
3523;SDS011;1776;53.330;11.498;2023-09-18T07:40:39;7.83;;;5.60;;
3523;SDS011;1776;53.330;11.498;2023-09-18T07:43:04;6.67;;;5.97;;
3523;SDS011;1776;53.330;11.498;2023-09-18T07:45:30;7.40;;;6.60;;
3523;SDS011;1776;53.330;11.498;2023-09-18T07:47:55;7.03;;;6.37;;
3523;SDS011;1776;53.330;11.498;2023-09-18T07:50:20;7.20;;;6.60;;
3523;SDS011;1776;53.330;11.498;2023-09-18T07:52:46;7.17;;;6.47;;
3523;SDS011;1776;53.330;11.498;2023-09-18T07:55:11;7.07;;;6.37;;
3523;SDS011;1776;53.330;11.498;2023-09-18T07:57:36;7.93;;;7.13;;
3523;SDS011;1776;53.330;11.498;2023-09-18T08:00:02;7.47;;;6.60;;
3523;SDS011;1776;53.330;11.498;2023-09-18T08:02:32;6.80;;;6.10;;
3523;SDS011;1776;53.330;11.498;2023-09-18T08:04:59;6.43;;;5.90;;
3523;SDS011;1776;53.330;11.498;2023-09-18T08:07:25;7.10;;;6.37;;
3523;SDS011;1776;53.330;11.498;2023-09-18T08:09:50;6.10;;;5.50;;
3523;SDS011;1776;53.330;11.498;2023-09-18T08:12:16;6.93;;;6.23;;
3523;SDS011;1776;53.330;11.498;2023-09-18T08:14:41;6.27;;;5.40;;
3523;SDS011;1776;53.330;11.498;2023-09-18T08:17:06;7.10;;;5.83;;
3523;SDS011;1776;53.330;11.498;2023-09-18T08:19:32;6.13;;;5.53;;
3523;SDS011;1776;53.330;11.498;2023-09-18T08:21:58;6.03;;;5.40;;
3523;SDS011;1776;53.330;11.498;2023-09-18T08:24:24;5.87;;;5.30;;
3523;SDS011;1776;53.330;11.498;2023-09-18T08:26:50;6.03;;;5.47;;
3523;SDS011;1776;53.330;11.498;2023-09-18T08:29:15;6.27;;;5.43;;
3523;SDS011;1776;53.330;11.498;2023-09-18T08:31:41;5.80;;;5.20;;
3523;SDS011;1776;53.330;11.498;2023-09-18T08:34:07;6.43;;;5.87;;
3523;SDS011;1776;53.330;11.498;2023-09-18T08:36:32;7.83;;;5.77;;
3523;SDS011;1776;53.330;11.498;2023-09-18T08:38:58;7.00;;;6.07;;
3523;SDS011;1776;53.330;11.498;2023-09-18T08:41:24;5.77;;;5.27;;
3523;SDS011;1776;53.330;11.498;2023-09-18T08:43:53;10.27;;;6.70;;
3523;SDS011;1776;53.330;11.498;2023-09-18T08:46:25;7.13;;;6.13;;
3523;SDS011;1776;53.330;11.498;2023-09-18T08:48:50;6.07;;;5.47;;
3523;SDS011;1776;53.330;11.498;2023-09-18T08:51:16;7.97;;;6.33;;
3523;SDS011;1776;53.330;11.498;2023-09-18T08:53:43;8.73;;;5.03;;
3523;SDS011;1776;53.330;11.498;2023-09-18T08:56:10;7.70;;;6.20;;
3523;SDS011;1776;53.330;11.498;2023-09-18T08:58:37;6.50;;;5.40;;
3523;SDS011;1776;53.330;11.498;2023-09-18T09:01:05;7.00;;;5.83;;
3523;SDS011;1776;53.330;11.498;2023-09-18T09:03:34;5.87;;;5.30;;
3523;SDS011;1776;53.330;11.498;2023-09-18T09:06:00;5.40;;;4.90;;
3523;SDS011;1776;53.330;11.498;2023-09-18T09:08:29;6.70;;;6.00;;
3523;SDS011;1776;53.330;11.498;2023-09-18T09:10:54;6.60;;;5.90;;
3523;SDS011;1776;53.330;11.498;2023-09-18T09:13:22;7.50;;;5.60;;
3523;SDS011;1776;53.330;11.498;2023-09-18T09:15:51;8.63;;;5.30;;
3523;SDS011;1776;53.330;11.498;2023-09-18T09:18:20;9.10;;;6.00;;
3523;SDS011;1776;53.330;11.498;2023-09-18T09:20:53;6.13;;;5.47;;
3523;SDS011;1776;53.330;11.498;2023-09-18T09:23:22;6.33;;;5.70;;
3523;SDS011;1776;53.330;11.498;2023-09-18T09:25:48;6.40;;;5.60;;
3523;SDS011;1776;53.330;11.498;2023-09-18T09:28:13;7.60;;;5.87;;
3523;SDS011;1776;53.330;11.498;2023-09-18T09:30:39;5.40;;;4.90;;
3523;SDS011;1776;53.330;11.498;2023-09-18T09:33:05;5.60;;;5.13;;
3523;SDS011;1776;53.330;11.498;2023-09-18T09:35:32;7.50;;;5.40;;
3523;SDS011;1776;53.330;11.498;2023-09-18T09:38:00;5.60;;;4.60;;
3523;SDS011;1776;53.330;11.498;2023-09-18T09:40:31;5.80;;;5.00;;
3523;SDS011;1776;53.330;11.498;2023-09-18T09:42:57;5.37;;;4.87;;
3523;SDS011;1776;53.330;11.498;2023-09-18T09:45:26;6.20;;;5.10;;
3523;SDS011;1776;53.330;11.498;2023-09-18T09:47:56;6.93;;;5.10;;
3523;SDS011;1776;53.330;11.498;2023-09-18T09:50:22;5.67;;;5.17;;
3523;SDS011;1776;53.330;11.498;2023-09-18T09:52:50;9.13;;;5.00;;
3523;SDS011;1776;53.330;11.498;2023-09-18T09:55:18;4.70;;;4.30;;
3523;SDS011;1776;53.330;11.498;2023-09-18T09:57:55;5.63;;;5.13;;
3523;SDS011;1776;53.330;11.498;2023-09-18T10:00:25;7.23;;;5.10;;
3523;SDS011;1776;53.330;11.498;2023-09-18T10:02:56;5.47;;;4.97;;
3523;SDS011;1776;53.330;11.498;2023-09-18T10:05:24;5.03;;;4.53;;
3523;SDS011;1776;53.330;11.498;2023-09-18T10:07:51;7.00;;;5.20;;
3523;SDS011;1776;53.330;11.498;2023-09-18T10:10:18;5.37;;;4.97;;
3523;SDS011;1776;53.330;11.498;2023-09-18T10:12:44;6.87;;;5.60;;
3523;SDS011;1776;53.330;11.498;2023-09-18T10:15:11;8.73;;;5.20;;
3523;SDS011;1776;53.330;11.498;2023-09-18T10:17:37;4.50;;;4.10;;
3523;SDS011;1776;53.330;11.498;2023-09-18T10:20:11;5.73;;;5.13;;
3523;SDS011;1776;53.330;11.498;2023-09-18T10:22:45;8.57;;;5.27;;
3523;SDS011;1776;53.330;11.498;2023-09-18T10:27:48;5.03;;;4.53;;
3523;SDS011;1776;53.330;11.498;2023-09-18T10:30:17;5.70;;;5.07;;
3523;SDS011;1776;53.330;11.498;2023-09-18T10:32:44;8.40;;;5.80;;
3523;SDS011;1776;53.330;11.498;2023-09-18T10:35:13;6.10;;;4.90;;
3523;SDS011;1776;53.330;11.498;2023-09-18T10:37:39;5.77;;;5.07;;
3523;SDS011;1776;53.330;11.498;2023-09-18T10:40:06;5.77;;;4.33;;
3523;SDS011;1776;53.330;11.498;2023-09-18T10:42:37;7.60;;;4.83;;
3523;SDS011;1776;53.330;11.498;2023-09-18T10:45:04;5.53;;;4.90;;
3523;SDS011;1776;53.330;11.498;2023-09-18T10:47:35;5.50;;;4.73;;
3523;SDS011;1776;53.330;11.498;2023-09-18T10:50:03;5.87;;;4.63;;
3523;SDS011;1776;53.330;11.498;2023-09-18T10:52:29;5.50;;;5.00;;
3523;SDS011;1776;53.330;11.498;2023-09-18T10:54:55;6.50;;;5.90;;
3523;SDS011;1776;53.330;11.498;2023-09-18T10:57:20;7.07;;;5.60;;
3523;SDS011;1776;53.330;11.498;2023-09-18T10:59:46;6.57;;;4.90;;
3523;SDS011;1776;53.330;11.498;2023-09-18T11:02:15;5.77;;;5.27;;
3523;SDS011;1776;53.330;11.498;2023-09-18T11:04:41;6.10;;;5.60;;
3523;SDS011;1776;53.330;11.498;2023-09-18T11:07:07;5.27;;;4.80;;
3523;SDS011;1776;53.330;11.498;2023-09-18T11:09:41;5.73;;;5.17;;
3523;SDS011;1776;53.330;11.498;2023-09-18T11:12:09;6.90;;;4.73;;
3523;SDS011;1776;53.330;11.498;2023-09-18T11:14:42;7.00;;;4.90;;
3523;SDS011;1776;53.330;11.498;2023-09-18T11:22:34;8.00;;;5.23;;
3523;SDS011;1776;53.330;11.498;2023-09-18T11:28:00;5.80;;;5.20;;
3523;SDS011;1776;53.330;11.498;2023-09-18T11:30:27;8.30;;;4.63;;
3523;SDS011;1776;53.330;11.498;2023-09-18T11:32:53;6.13;;;5.53;;
3523;SDS011;1776;53.330;11.498;2023-09-18T11:35:20;8.60;;;5.63;;
3523;SDS011;1776;53.330;11.498;2023-09-18T11:37:46;7.30;;;5.50;;
3523;SDS011;1776;53.330;11.498;2023-09-18T11:40:30;5.93;;;5.27;;
3523;SDS011;1776;53.330;11.498;2023-09-18T11:45:51;7.30;;;4.67;;
3523;SDS011;1776;53.330;11.498;2023-09-18T11:48:18;7.40;;;4.90;;
3523;SDS011;1776;53.330;11.498;2023-09-18T11:50:44;9.83;;;5.43;;
3523;SDS011;1776;53.330;11.498;2023-09-18T11:53:13;7.13;;;5.03;;
3523;SDS011;1776;53.330;11.498;2023-09-18T11:55:39;6.23;;;4.70;;
3523;SDS011;1776;53.330;11.498;2023-09-18T11:58:05;5.47;;;4.63;;
3523;SDS011;1776;53.330;11.498;2023-09-18T12:00:31;5.73;;;5.03;;
3523;SDS011;1776;53.330;11.498;2023-09-18T12:02:57;6.60;;;5.50;;
3523;SDS011;1776;53.330;11.498;2023-09-18T12:05:25;6.70;;;5.20;;
3523;SDS011;1776;53.330;11.498;2023-09-18T12:07:51;8.17;;;5.53;;
3523;SDS011;1776;53.330;11.498;2023-09-18T12:10:17;6.23;;;4.30;;
3523;SDS011;1776;53.330;11.498;2023-09-18T12:12:46;6.83;;;5.03;;
3523;SDS011;1776;53.330;11.498;2023-09-18T12:15:12;6.30;;;5.37;;
3523;SDS011;1776;53.330;11.498;2023-09-18T12:17:40;6.07;;;5.03;;
3523;SDS011;1776;53.330;11.498;2023-09-18T12:20:05;6.30;;;5.53;;
3523;SDS011;1776;53.330;11.498;2023-09-18T12:22:31;5.53;;;5.00;;
3523;SDS011;1776;53.330;11.498;2023-09-18T12:25:11;6.77;;;5.20;;
3523;SDS011;1776;53.330;11.498;2023-09-18T12:27:43;7.53;;;5.03;;
3523;SDS011;1776;53.330;11.498;2023-09-18T12:30:09;10.83;;;5.27;;
3523;SDS011;1776;53.330;11.498;2023-09-18T12:32:36;5.93;;;4.90;;
3523;SDS011;1776;53.330;11.498;2023-09-18T12:35:02;5.60;;;5.10;;
3523;SDS011;1776;53.330;11.498;2023-09-18T12:37:31;7.53;;;4.60;;
3523;SDS011;1776;53.330;11.498;2023-09-18T12:39:57;6.40;;;5.30;;
3523;SDS011;1776;53.330;11.498;2023-09-18T12:42:22;7.50;;;5.50;;
3523;SDS011;1776;53.330;11.498;2023-09-18T12:44:48;7.30;;;4.90;;
3523;SDS011;1776;53.330;11.498;2023-09-18T12:47:14;6.20;;;5.10;;
3523;SDS011;1776;53.330;11.498;2023-09-18T12:49:40;4.63;;;4.23;;
3523;SDS011;1776;53.330;11.498;2023-09-18T12:52:05;4.87;;;4.17;;
3523;SDS011;1776;53.330;11.498;2023-09-18T12:54:37;6.47;;;4.50;;
3523;SDS011;1776;53.330;11.498;2023-09-18T12:57:04;8.37;;;4.80;;
3523;SDS011;1776;53.330;11.498;2023-09-18T12:59:31;6.70;;;5.00;;
3523;SDS011;1776;53.330;11.498;2023-09-18T13:01:57;10.30;;;5.40;;
3523;SDS011;1776;53.330;11.498;2023-09-18T13:04:22;6.90;;;4.40;;
3523;SDS011;1776;53.330;11.498;2023-09-18T13:07:02;6.13;;;4.70;;
3523;SDS011;1776;53.330;11.498;2023-09-18T13:09:39;9.63;;;4.97;;
3523;SDS011;1776;53.330;11.498;2023-09-18T13:12:06;8.80;;;4.33;;
3523;SDS011;1776;53.330;11.498;2023-09-18T13:17:23;8.40;;;5.20;;
3523;SDS011;1776;53.330;11.498;2023-09-18T13:19:49;16.80;;;5.20;;
3523;SDS011;1776;53.330;11.498;2023-09-18T13:22:21;11.57;;;4.70;;
3523;SDS011;1776;53.330;11.498;2023-09-18T13:24:54;7.73;;;4.17;;
3523;SDS011;1776;53.330;11.498;2023-09-18T13:27:20;11.70;;;4.43;;
3523;SDS011;1776;53.330;11.498;2023-09-18T13:29:45;10.33;;;4.53;;
3523;SDS011;1776;53.330;11.498;2023-09-18T13:32:11;6.50;;;3.67;;
3523;SDS011;1776;53.330;11.498;2023-09-18T13:34:36;7.50;;;4.20;;
3523;SDS011;1776;53.330;11.498;2023-09-18T13:37:02;6.20;;;4.23;;
3523;SDS011;1776;53.330;11.498;2023-09-18T13:39:27;8.63;;;4.07;;
3523;SDS011;1776;53.330;11.498;2023-09-18T13:41:53;7.07;;;4.57;;
3523;SDS011;1776;53.330;11.498;2023-09-18T13:44:18;7.20;;;3.73;;
3523;SDS011;1776;53.330;11.498;2023-09-18T13:46:43;5.57;;;3.90;;
3523;SDS011;1776;53.330;11.498;2023-09-18T13:49:08;11.77;;;5.00;;
3523;SDS011;1776;53.330;11.498;2023-09-18T13:51:34;8.13;;;4.37;;
3523;SDS011;1776;53.330;11.498;2023-09-18T13:53:59;10.73;;;3.97;;
3523;SDS011;1776;53.330;11.498;2023-09-18T13:56:24;4.90;;;3.73;;
3523;SDS011;1776;53.330;11.498;2023-09-18T13:58:52;6.90;;;3.77;;
3523;SDS011;1776;53.330;11.498;2023-09-18T14:01:20;7.97;;;3.47;;
3523;SDS011;1776;53.330;11.498;2023-09-18T14:03:46;9.67;;;3.80;;
3523;SDS011;1776;53.330;11.498;2023-09-18T14:06:11;7.00;;;4.07;;
3523;SDS011;1776;53.330;11.498;2023-09-18T14:08:37;6.90;;;3.80;;
3523;SDS011;1776;53.330;11.498;2023-09-18T14:11:04;8.73;;;4.10;;
3523;SDS011;1776;53.330;11.498;2023-09-18T14:13:31;6.70;;;3.30;;
3523;SDS011;1776;53.330;11.498;2023-09-18T14:15:56;6.87;;;3.67;;
3523;SDS011;1776;53.330;11.498;2023-09-18T14:18:22;7.07;;;3.53;;
3523;SDS011;1776;53.330;11.498;2023-09-18T14:20:47;4.40;;;3.10;;
3523;SDS011;1776;53.330;11.498;2023-09-18T14:23:12;5.93;;;3.53;;
3523;SDS011;1776;53.330;11.498;2023-09-18T14:25:37;10.10;;;3.93;;
3523;SDS011;1776;53.330;11.498;2023-09-18T14:28:03;7.20;;;3.30;;
3523;SDS011;1776;53.330;11.498;2023-09-18T14:30:28;9.97;;;3.47;;
3523;SDS011;1776;53.330;11.498;2023-09-18T14:32:56;6.77;;;3.30;;
3523;SDS011;1776;53.330;11.498;2023-09-18T14:35:21;6.13;;;3.20;;
3523;SDS011;1776;53.330;11.498;2023-09-18T14:37:48;11.43;;;3.37;;
3523;SDS011;1776;53.330;11.498;2023-09-18T14:40:14;4.93;;;3.37;;
3523;SDS011;1776;53.330;11.498;2023-09-18T14:42:40;7.43;;;3.00;;
3523;SDS011;1776;53.330;11.498;2023-09-18T14:45:05;6.80;;;3.70;;
3523;SDS011;1776;53.330;11.498;2023-09-18T14:47:31;5.70;;;3.40;;
3523;SDS011;1776;53.330;11.498;2023-09-18T14:49:56;6.47;;;3.17;;
3523;SDS011;1776;53.330;11.498;2023-09-18T14:52:23;8.37;;;3.50;;
3523;SDS011;1776;53.330;11.498;2023-09-18T14:54:50;8.60;;;3.23;;
3523;SDS011;1776;53.330;11.498;2023-09-18T14:57:16;6.67;;;3.10;;
3523;SDS011;1776;53.330;11.498;2023-09-18T14:59:42;9.60;;;3.80;;
3523;SDS011;1776;53.330;11.498;2023-09-18T15:02:07;9.70;;;3.47;;
3523;SDS011;1776;53.330;11.498;2023-09-18T15:04:33;5.20;;;2.50;;
3523;SDS011;1776;53.330;11.498;2023-09-18T15:06:59;9.03;;;3.40;;
3523;SDS011;1776;53.330;11.498;2023-09-18T15:09:24;7.00;;;3.00;;
3523;SDS011;1776;53.330;11.498;2023-09-18T15:11:50;6.87;;;2.97;;